Time;durP1;ratioP1;P1;durP2;ratioP2;P2;SDS_P1;SDS_P2;PMS_P1;PMS_P2;Temp;Humidity;BMP_temperature;BMP_pressure;BME280_temperature;BME280_humidity;BME280_pressure;Samples;Min_cycle;Max_cycle;Signal;HPM_P1;HPM_P2
2023/03/16 05:47:00;;;;;;;730.85;666.78;;;;;;;21.48;47.01;100589.25;20777091;28;1310863;-71
2023/03/16 05:57:01;;;;;;;755.58;689.70;;;;;;;21.55;47.53;100598.34;20757303;28;20056;-73
2023/03/16 06:07:01;;;;;;;762.80;696.22;;;;;;;21.52;44.69;100613.56;20733170;28;20053;-71
2023/03/16 06:17:02;;;;;;;771.40;704.42;;;;;;;21.59;45.03;100614.81;20762511;28;20080;-70
2023/03/16 06:27:03;;;;;;;777.95;710.35;;;;;;;21.64;46.30;100631.13;21056531;23;20113;-73
2023/03/16 06:37:04;;;;;;;762.92;696.15;;;;;;;21.72;46.96;100646.34;20583603;28;20540;-73
2023/03/16 06:47:04;;;;;;;740.67;675.40;;;;;;;21.72;45.16;100656.91;20580589;28;20038;-73
2023/03/16 06:57:05;;;;;;;782.45;714.50;;;;;;;21.77;45.52;100673.19;20589931;28;20077;-73
2023/03/16 07:07:05;;;;;;;774.72;707.28;;;;;;;21.79;45.82;100678.34;20582019;28;20046;-72
2023/03/16 07:17:06;;;;;;;766.55;699.78;;;;;;;21.82;45.91;100692.16;20597692;28;20042;-73
2023/03/16 07:27:07;;;;;;;770.17;702.50;;;;;;;21.86;45.39;100706.78;20558751;28;20046;-74
2023/03/16 07:37:08;;;;;;;774.75;707.40;;;;;;;21.88;46.21;100711.94;20497566;28;20141;-72
2023/03/16 07:47:11;;;;;;;762.10;695.58;;;;;;;21.89;47.95;100713.63;20508190;28;20077;-73
2023/03/16 07:57:12;;;;;;;766.30;699.47;;;;;;;21.92;48.13;100716.00;20515877;28;20077;-74
2023/03/16 08:07:14;;;;;;;789.20;720.35;;;;;;;21.96;47.50;100721.91;20530799;28;20065;-72
2023/03/16 08:17:15;;;;;;;707.47;644.78;;;;;;;21.94;48.01;100740.47;20514146;28;20047;-72
2023/03/16 08:27:16;;;;;;;712.70;649.50;;;;;;;21.97;48.52;100745.53;20503258;28;20090;-74
2023/03/16 08:37:17;;;;;;;676.53;615.72;;;;;;;21.99;48.60;100743.59;20516807;28;20157;-73
2023/03/16 08:47:18;;;;;;;688.03;626.80;;;;;;;22.03;47.55;100754.75;20507650;28;20051;-73
2023/03/16 08:57:18;;;;;;;683.03;621.80;;;;;;;22.05;47.32;100752.84;20491891;28;20503;-75
2023/03/16 09:07:19;;;;;;;727.00;662.80;;;;;;;22.07;47.19;100762.34;20495584;28;20457;-76
2023/03/16 09:17:19;;;;;;;745.85;680.35;;;;;;;22.05;45.80;100768.69;20493154;28;20070;-75
2023/03/16 09:27:21;;;;;;;754.58;688.33;;;;;;;22.04;45.58;100767.00;20494334;28;20047;-72
2023/03/16 09:37:22;;;;;;;764.38;697.45;;;;;;;22.05;45.47;100768.69;20514343;28;20082;-74
2023/03/16 09:47:28;;;;;;;747.15;681.67;;;;;;;22.07;45.25;100772.06;20514149;28;20669;-73
2023/03/16 09:57:33;;;;;;;768.70;701.55;;;;;;;22.07;45.45;100780.78;20517344;28;20047;-73
2023/03/16 10:08:02;;;;;;;790.88;722.03;;;;;;;22.10;45.17;100781.53;20512948;28;20039;-72
2023/03/16 10:18:18;;;;;;;765.50;698.33;;;;;;;22.13;45.41;100783.91;20508489;28;20647;-72
2023/03/16 10:28:27;;;;;;;726.10;661.88;;;;;;;22.15;44.78;100790.75;20507208;28;21427;-72
2023/03/16 10:38:45;;;;;;;721.33;657.35;;;;;;;22.20;45.00;100787.78;20515298;28;20051;-73
2023/03/16 10:49:00;;;;;;;732.88;668.08;;;;;;;22.24;45.10;100781.34;20507536;28;20039;-72
2023/03/16 10:59:01;;;;;;;751.83;685.70;;;;;;;22.28;45.12;100789.84;20504412;28;20134;-72
2023/03/16 11:09:25;;;;;;;757.57;690.70;;;;;;;22.34;44.72;100773.56;20510527;28;20156;-73
2023/03/16 11:19:28;;;;;;;777.30;709.08;;;;;;;22.43;44.27;100769.41;20505806;28;20055;-72
2023/03/16 11:30:08;;;;;;;749.85;683.65;;;;;;;22.49;44.29;100761.84;20513388;28;20142;-73
2023/03/16 11:40:15;;;;;;;799.42;729.35;;;;;;;22.58;43.91;100762.09;20503559;28;20126;-73
2023/03/16 11:50:28;;;;;;;493.42;445.33;;;;;;;22.64;43.76;100746.63;20492440;28;20132;-72
2023/03/16 12:01:00;;;;;;;422.10;379.60;;;;;;;22.73;43.54;100750.34;20503742;28;20046;-72
2023/03/16 12:11:19;;;;;;;;;;;;;;;22.81;43.36;100737.38;20504386;28;20672;-72
2023/03/16 12:21:24;;;;;;;425.90;382.83;;;;;;;22.90;43.44;100737.59;20511827;28;20355;-73
2023/03/16 12:32:02;;;;;;;305.58;275.13;;;;;;;22.97;42.99;100736.16;20504197;28;20133;-72
2023/03/16 12:42:05;;;;;;;297.85;267.98;;;;;;;23.05;43.01;100741.66;20502674;28;20154;-72
2023/03/16 12:52:09;;;;;;;378.08;339.90;;;;;;;23.12;43.15;100732.28;20509477;28;20536;-72
2023/03/16 13:02:25;;;;;;;428.65;385.15;;;;;;;23.17;43.07;100730.16;20503802;28;20067;-72
2023/03/16 13:12:35;;;;;;;408.67;367.13;;;;;;;23.25;42.91;100731.34;20503839;28;20406;-72
2023/03/16 13:22:51;;;;;;;414.40;372.20;;;;;;;23.33;42.45;100734.19;20501761;28;20049;-72
2023/03/16 13:32:54;;;;;;;429.48;385.67;;;;;;;23.41;42.33;100728.28;20506439;28;20051;-72
2023/03/16 13:42:56;;;;;;;452.63;406.85;;;;;;;23.47;42.25;100731.28;20471743;28;20043;-73
2023/03/16 13:53:03;;;;;;;453.40;407.55;;;;;;;23.53;41.65;100726.44;20490757;28;20703;-76
2023/03/16 14:03:16;;;;;;;432.73;388.17;;;;;;;23.59;41.45;100728.59;20507882;28;20043;-79
2023/03/16 14:13:31;;;;;;;350.95;314.88;;;;;;;23.62;41.20;100723.03;20511097;28;20043;-78
2023/03/16 14:23:36;;;;;;;346.33;310.08;;;;;;;23.66;39.67;100732.41;20498693;28;20429;-77
2023/03/16 14:33:41;;;;;;;358.98;321.80;;;;;;;23.73;40.79;100746.78;20504341;28;20051;-76
2023/03/16 14:43:50;;;;;;;337.38;301.90;;;;;;;23.80;40.95;100741.81;20522357;28;20513;-77
2023/03/16 14:53:51;;;;;;;305.25;273.60;;;;;;;23.91;40.66;100751.50;20522189;28;20049;-77
2023/03/16 15:03:51;;;;;;;279.65;250.93;;;;;;;23.96;40.54;100757.28;20513601;28;20058;-77
2023/03/16 15:13:52;;;;;;;279.80;250.97;;;;;;;24.11;40.26;100748.06;20522077;28;20099;-77
2023/03/16 15:23:53;;;;;;;295.73;264.90;;;;;;;24.25;39.91;100746.06;20517721;28;20137;-78
2023/03/16 15:33:53;;;;;;;284.15;254.50;;;;;;;24.48;39.49;100762.63;20522848;28;20058;-76
2023/03/16 15:43:59;;;;;;;197.95;177.82;;;;;;;24.51;39.05;100772.94;20524875;28;20046;-80
2023/03/16 15:54:05;;;;;;;187.88;169.68;;;;;;;24.32;39.13;100792.19;20522517;28;20050;-81
2023/03/16 16:04:14;;;;;;;198.32;178.95;;;;;;;24.27;39.18;100800.53;20513576;28;20114;-79
2023/03/16 16:14:18;;;;;;;195.57;176.75;;;;;;;23.99;39.50;100815.22;20500400;28;20043;-81
2023/03/16 16:24:18;;;;;;;199.57;179.48;;;;;;;23.75;39.73;100823.34;20517532;28;20051;-78
2023/03/16 16:34:23;;;;;;;177.98;161.15;;;;;;;23.53;39.75;100840.09;20513268;28;20086;-77
2023/03/16 16:44:27;;;;;;;179.85;162.63;;;;;;;23.34;39.36;100849.50;20514536;28;20083;-79
2023/03/16 16:54:30;;;;;;;189.43;171.05;;;;;;;23.25;39.12;100864.25;20505277;28;20227;-77
2023/03/16 17:04:30;;;;;;;204.00;183.90;;;;;;;23.16;39.80;100878.19;20508626;28;20605;-77
2023/03/16 17:14:31;;;;;;;193.50;174.60;;;;;;;23.11;40.48;100889.09;20500236;28;20443;-76
2023/03/16 17:24:31;;;;;;;200.02;179.82;;;;;;;23.05;42.42;100889.56;20506079;28;20297;-77
2023/03/16 17:34:33;;;;;;;209.80;189.15;;;;;;;22.97;43.19;100903.38;20500390;28;20642;-75
2023/03/16 17:44:38;;;;;;;195.73;176.83;;;;;;;22.83;43.93;100912.34;20516304;28;21329;-75
2023/03/16 17:54:41;;;;;;;180.85;163.38;;;;;;;22.74;43.93;100922.78;20519140;28;20126;-75
2023/03/16 18:04:42;;;;;;;202.75;183.32;;;;;;;22.71;43.96;100922.03;20533215;28;20502;-75
2023/03/16 18:14:43;;;;;;;207.57;187.43;;;;;;;22.69;44.41;100941.59;20523140;28;20403;-75
2023/03/16 18:24:45;;;;;;;179.45;162.43;;;;;;;22.66;44.94;100947.94;20520670;28;20065;-76
2023/03/16 18:34:46;;;;;;;207.10;187.23;;;;;;;22.57;46.05;100964.50;20518041;28;20150;-76
2023/03/16 18:44:49;;;;;;;182.13;164.63;;;;;;;22.60;45.84;100985.34;20533770;28;22993;-77
2023/03/16 18:54:51;;;;;;;182.95;165.57;;;;;;;22.58;45.72;101004.91;20523219;28;20110;-77
2023/03/16 19:04:54;;;;;;;174.27;157.90;;;;;;;22.53;45.93;101014.00;20521076;28;20049;-76
2023/03/16 19:14:55;;;;;;;174.23;158.15;;;;;;;22.49;45.83;101041.56;20515873;28;20042;-77
2023/03/16 19:24:56;;;;;;;178.10;161.25;;;;;;;22.45;45.94;101050.66;20530236;28;20167;-75
2023/03/16 19:35:06;;;;;;;193.43;175.23;;;;;;;22.44;45.65;101059.53;20513038;28;20050;-74
2023/03/16 19:45:20;;;;;;;186.85;169.10;;;;;;;22.43;45.57;101080.75;20529246;28;20098;-74
2023/03/16 19:55:27;;;;;;;167.23;151.68;;;;;;;22.38;45.68;101081.09;20535026;28;20422;-75
2023/03/16 20:05:29;;;;;;;170.93;155.07;;;;;;;22.37;45.35;101092.56;20513529;28;20047;-79
2023/03/16 20:15:32;;;;;;;172.97;156.93;;;;;;;22.33;45.58;101097.22;20518371;28;20477;-77
2023/03/16 20:25:34;;;;;;;;;;;;;;;22.23;43.20;101104.09;20501138;28;20065;-79
2023/03/16 20:35:35;;;;;;;187.82;170.43;;;;;;;22.18;43.64;101119.38;20516592;28;20037;-77
2023/03/16 20:45:36;;;;;;;175.27;158.88;;;;;;;22.13;43.71;101117.09;20518833;28;20043;-77
2023/03/16 20:55:38;;;;;;;183.18;165.75;;;;;;;22.13;43.88;101126.78;20524632;28;20129;-78
2023/03/16 21:05:39;;;;;;;217.38;196.75;;;;;;;22.09;44.53;101134.06;20517581;28;20051;-78
2023/03/16 21:15:40;;;;;;;178.40;161.88;;;;;;;22.06;44.86;101136.94;20529388;28;20514;-74
2023/03/16 21:25:52;;;;;;;175.60;159.18;;;;;;;22.03;45.21;101145.91;20532852;28;20051;-76
2023/03/16 21:35:52;;;;;;;189.13;171.50;;;;;;;22.02;45.13;101157.41;20526404;28;20051;-76
2023/03/16 21:45:54;;;;;;;176.40;159.70;;;;;;;22.00;45.28;101159.28;20535556;28;20355;-78
2023/03/16 21:55:55;;;;;;;193.07;174.93;;;;;;;21.95;45.04;101158.78;20542732;28;20284;-76
2023/03/16 22:05:58;;;;;;;190.73;172.85;;;;;;;21.90;45.14;101161.72;20526053;28;20039;-77
2023/03/16 22:15:58;;;;;;;172.40;156.65;;;;;;;21.94;45.32;101165.00;20531695;28;20054;-78
2023/03/16 22:26:04;;;;;;;184.60;167.60;;;;;;;21.90;45.71;101167.00;20523783;28;20376;-77
2023/03/16 22:36:12;;;;;;;187.98;170.35;;;;;;;21.92;45.56;101169.50;20534007;28;20142;-78
2023/03/16 22:46:25;;;;;;;188.98;171.52;;;;;;;21.88;45.64;101163.59;20525859;28;20097;-78
2023/03/16 22:56:26;;;;;;;;;;;;;;;21.86;45.45;101178.72;20526397;28;20058;-78
2023/03/16 23:06:28;;;;;;;186.45;169.20;;;;;;;21.84;45.80;101179.75;20520261;28;19918;-78
2023/03/16 23:16:33;;;;;;;170.13;154.70;;;;;;;21.83;45.87;101185.97;20527493;28;20604;-77
2023/03/16 23:26:33;;;;;;;188.63;170.90;;;;;;;21.81;45.77;101196.59;20520472;28;20444;-76
2023/03/16 23:36:34;;;;;;;175.27;159.15;;;;;;;21.78;46.06;101199.47;20514993;28;20132;-79
2023/03/16 23:46:34;;;;;;;170.80;155.05;;;;;;;21.76;45.51;101198.72;20518363;28;20069;-76
2023/03/16 23:56:35;;;;;;;179.07;162.57;;;;;;;21.76;45.53;101201.34;20500697;28;20065;-77
